createdAt,value
2022-09-17T00:01:41.797Z,99655.13
2022-09-17T00:04:11.232Z,99662.34
2022-09-17T00:06:38.843Z,99662.97
2022-09-17T00:09:07.943Z,99665.44
2022-09-17T00:11:39.497Z,99673.03
2022-09-17T00:14:09.358Z,99671.41
2022-09-17T00:16:39.021Z,99679.66
2022-09-17T00:19:10.170Z,99672.66
2022-09-17T00:21:37.928Z,99676.97
2022-09-17T00:24:07.710Z,99691.03
2022-09-17T00:26:37.062Z,99689.78
2022-09-17T00:29:06.187Z,99678.44
2022-09-17T00:31:34.474Z,99681.31
2022-09-17T00:34:03.911Z,99673.69
2022-09-17T00:36:35.051Z,99673.88
2022-09-17T00:39:03.264Z,99673.88
2022-09-17T00:41:33.644Z,99675.97
2022-09-17T00:44:03.380Z,99678.84
2022-09-17T00:46:36.899Z,99671.00
2022-09-17T00:49:08.651Z,99676.78
2022-09-17T00:51:59.612Z,99673.69
2022-09-17T00:54:28.732Z,99674.31
2022-09-17T00:56:59.809Z,99679.25
2022-09-17T00:59:27.825Z,99678.22
2022-09-17T01:01:55.948Z,99673.69
2022-09-17T01:04:25.727Z,99672.88
2022-09-17T01:07:04.130Z,99681.72
2022-09-17T01:09:41.925Z,99682.34
2022-09-17T01:12:23.603Z,99683.19
2022-09-17T01:15:03.221Z,99681.13
2022-09-17T01:17:39.877Z,99681.13
2022-09-17T01:20:37.915Z,99678.22
2022-09-17T01:23:37.793Z,99680.06
2022-09-17T01:26:27.190Z,99688.75
2022-09-17T01:29:02.493Z,99683.19
2022-09-17T01:31:36.199Z,99691.41
2022-09-17T01:34:14.372Z,99684.63
2022-09-17T01:36:52.159Z,99689.59
2022-09-17T01:39:31.899Z,99689.38
2022-09-17T01:42:11.318Z,99692.25
2022-09-17T01:44:46.887Z,99691.44
2022-09-17T01:47:21.314Z,99691.63
2022-09-17T01:49:52.010Z,99685.84
2022-09-17T01:52:21.105Z,99687.72
2022-09-17T01:54:52.418Z,99695.97
2022-09-17T01:57:29.138Z,99689.56
2022-09-17T02:00:01.048Z,99688.75
2022-09-17T02:02:34.765Z,99688.97
2022-09-17T02:05:06.291Z,99693.50
2022-09-17T02:07:41.779Z,99689.16
2022-09-17T02:10:13.542Z,99695.53
2022-09-17T02:12:44.709Z,99689.38
2022-09-17T02:15:15.337Z,99687.28
2022-09-17T02:17:50.557Z,99693.50
2022-09-17T02:20:23.077Z,99690.41
2022-09-17T02:22:57.594Z,99691.22
2022-09-17T02:25:31.145Z,99691.84
2022-09-17T02:28:03.629Z,99694.94
2022-09-17T02:30:32.102Z,99689.16
2022-09-17T02:33:03.637Z,99702.16
2022-09-17T02:35:32.032Z,99698.84
2022-09-17T02:37:59.838Z,99695.78
2022-09-17T02:40:33.135Z,99695.78
2022-09-17T02:43:11.126Z,99692.88
2022-09-17T02:45:52.606Z,99702.38
2022-09-17T02:48:50.053Z,99694.31
2022-09-17T02:51:30.427Z,99707.72
2022-09-17T02:54:09.773Z,99694.31
2022-09-17T02:56:46.198Z,99697.81
2022-09-17T02:59:20.912Z,99705.66
2022-09-17T03:01:55.598Z,99698.25
2022-09-17T03:04:27.497Z,99695.34
2022-09-17T03:06:56.564Z,99699.66
2022-09-17T03:09:24.185Z,99697.22
2022-09-17T03:11:51.803Z,99702.78
2022-09-17T03:14:20.783Z,99690.19
2022-09-17T03:16:48.801Z,99700.94
2022-09-17T03:19:16.442Z,99694.50
2022-09-17T03:21:45.755Z,99696.78
2022-09-17T03:24:13.568Z,99705.22
2022-09-17T03:26:41.089Z,99702.53
2022-09-17T03:29:08.756Z,99701.50
2022-09-17T03:31:36.380Z,99703.16
2022-09-17T03:34:04.133Z,99703.56
2022-09-17T03:36:32.015Z,99709.16
2022-09-17T03:39:02.246Z,99710.16
2022-09-17T03:41:32.132Z,99718.41
2022-09-17T03:43:59.713Z,99719.44
2022-09-17T03:46:29.734Z,99722.50
2022-09-17T03:48:57.382Z,99713.84
2022-09-17T03:51:25.019Z,99720.00
2022-09-17T03:53:52.618Z,99717.53
2022-09-17T03:56:21.538Z,99719.63
2022-09-17T03:58:49.323Z,99725.38
2022-09-17T04:01:17.029Z,99714.66
2022-09-17T04:03:45.900Z,99721.88
2022-09-17T04:06:13.420Z,99718.97
2022-09-17T04:08:41.006Z,99725.50
2022-09-17T04:11:08.797Z,99737.25
2022-09-17T04:13:37.742Z,99718.50
2022-09-17T04:16:06.665Z,99733.44
2022-09-17T04:18:35.452Z,99729.28
2022-09-17T04:21:03.715Z,99731.31
2022-09-17T04:23:31.289Z,99736.50
2022-09-17T04:25:58.835Z,99732.78
2022-09-17T04:28:26.435Z,99744.16
2022-09-17T04:30:55.448Z,99747.22
2022-09-17T04:33:23.077Z,99745.38
2022-09-17T04:35:50.716Z,99754.28
2022-09-17T04:38:20.530Z,99755.31
2022-09-17T04:40:48.180Z,99757.78
2022-09-17T04:43:15.966Z,99761.44
2022-09-17T04:45:46.552Z,99761.25
2022-09-17T04:48:15.791Z,99755.72
2022-09-17T04:50:43.428Z,99756.72
2022-09-17T04:53:11.093Z,99767.47
2022-09-17T04:55:38.807Z,99765.16
2022-09-17T04:58:06.853Z,99766.41
2022-09-17T05:00:35.313Z,99763.09
2022-09-17T05:03:07.128Z,99770.53
2022-09-17T05:05:36.501Z,99775.69
2022-09-17T05:08:04.197Z,99773.66
2022-09-17T05:10:33.381Z,99780.25
2022-09-17T05:13:02.107Z,99777.53
2022-09-17T05:15:29.708Z,99781.84
2022-09-17T05:17:57.295Z,99779.63
2022-09-17T05:20:24.870Z,99790.91
2022-09-17T05:22:53.933Z,99784.75
2022-09-17T05:25:24.125Z,99776.53
2022-09-17T05:27:52.276Z,99786.22
2022-09-17T05:30:20.165Z,99780.81
2022-09-17T05:32:48.182Z,99782.88
2022-09-17T05:35:16.156Z,99784.25
2022-09-17T05:37:43.721Z,99791.69
2022-09-17T05:40:12.903Z,99786.94
2022-09-17T05:42:40.845Z,99793.81
2022-09-17T05:45:09.397Z,99799.88
2022-09-17T05:47:37.116Z,99808.91
2022-09-17T05:50:05.191Z,99807.91
2022-09-17T05:52:32.776Z,99813.50
2022-09-17T05:55:00.507Z,99816.81
2022-09-17T05:57:31.257Z,99810.44
2022-09-17T05:59:58.950Z,99811.06
2022-09-17T06:02:26.635Z,99803.47
2022-09-17T06:04:54.190Z,99798.13
2022-09-17T06:07:21.796Z,99801.03
2022-09-17T06:09:49.383Z,99797.88
2022-09-17T06:12:17.104Z,99805.66
2022-09-17T06:14:46.239Z,99808.50
2022-09-17T06:17:13.866Z,99813.25
2022-09-17T06:19:41.416Z,99806.56
2022-09-17T06:22:09.152Z,99815.09
2022-09-17T06:24:36.755Z,99819.25
2022-09-17T06:27:04.990Z,99810.50
2022-09-17T06:29:32.608Z,99803.03
2022-09-17T06:32:02.823Z,99806.16
2022-09-17T06:34:30.529Z,99811.03
2022-09-17T06:36:58.086Z,99807.19
2022-09-17T06:39:25.804Z,99801.09
2022-09-17T06:41:53.547Z,99797.44
2022-09-17T06:44:21.162Z,99796.63
2022-09-17T06:46:51.097Z,99794.22
2022-09-17T06:49:20.234Z,99794.19
2022-09-17T06:51:47.767Z,99788.41
2022-09-17T06:54:15.293Z,99785.75
2022-09-17T06:56:42.816Z,99784.66
2022-09-17T06:59:10.427Z,99787.47
2022-09-17T07:01:38.042Z,99780.06
2022-09-17T07:04:05.697Z,99781.84
2022-09-17T07:06:34.640Z,99782.50
2022-09-17T07:09:02.197Z,99778.66
2022-09-17T07:11:30.807Z,99770.78
2022-09-17T07:13:59.051Z,99766.13
2022-09-17T07:16:28.163Z,99769.31
2022-09-17T07:18:55.795Z,99763.81
2022-09-17T07:21:23.458Z,99767.44
2022-09-17T07:23:53.058Z,99761.97
2022-09-17T07:26:20.721Z,99764.91
2022-09-17T07:28:48.448Z,99760.06
2022-09-17T07:31:17.059Z,99768.47
2022-09-17T07:33:45.124Z,99768.34
2022-09-17T07:36:14.781Z,99756.19
2022-09-17T07:38:42.474Z,99771.47
2022-09-17T07:41:13.363Z,99766.69
2022-09-17T07:43:42.923Z,99770.50
2022-09-17T07:46:15.103Z,99774.78
2022-09-17T07:48:43.008Z,99780.00
2022-09-17T07:51:16.441Z,99776.31
2022-09-17T07:53:43.956Z,99769.25
2022-09-17T07:56:13.727Z,99769.22
2022-09-17T07:58:42.319Z,99761.56
2022-09-17T08:01:15.326Z,99760.28
2022-09-17T08:03:44.178Z,99763.28
2022-09-17T08:06:13.454Z,99756.28
2022-09-17T08:08:41.483Z,99753.28
2022-09-17T08:11:11.169Z,99760.16
2022-09-17T08:13:40.400Z,99766.09
2022-09-17T08:16:10.267Z,99762.56
2022-09-17T08:18:38.508Z,99768.78
2022-09-17T08:21:08.459Z,99779.56
2022-09-17T08:23:37.890Z,99783.28
2022-09-17T08:26:08.453Z,99785.38
2022-09-17T08:28:36.721Z,99787.53
2022-09-17T08:31:08.190Z,99802.16
2022-09-17T08:33:38.082Z,99791.00
2022-09-17T08:36:07.174Z,99785.16
2022-09-17T08:38:38.341Z,99793.41
2022-09-17T08:41:20.324Z,99790.78
2022-09-17T08:43:58.005Z,99793.84
2022-09-17T08:46:27.520Z,99791.78
2022-09-17T08:49:03.095Z,99793.91
2022-09-17T08:51:44.695Z,99788.59
2022-09-17T08:54:17.551Z,99788.50
2022-09-17T08:56:46.782Z,99777.22
2022-09-17T08:59:26.538Z,99781.19
2022-09-17T09:02:04.365Z,99787.06
2022-09-17T09:04:58.853Z,99796.13
2022-09-17T09:07:31.217Z,99781.66
2022-09-17T09:10:12.346Z,99784.41
2022-09-17T09:12:41.192Z,99786.84
2022-09-17T09:15:22.874Z,99794.63
2022-09-17T09:17:53.730Z,99782.00
2022-09-17T09:20:32.108Z,99782.00
2022-09-17T09:23:04.311Z,99789.78
2022-09-17T09:25:36.151Z,99790.47
2022-09-17T09:28:18.922Z,99780.50
2022-09-17T09:31:09.115Z,99783.69
2022-09-17T09:33:47.055Z,99778.41
2022-09-17T09:36:21.557Z,99774.88
2022-09-17T09:38:54.022Z,99786.41
2022-09-17T09:41:28.303Z,99784.47
2022-09-17T09:44:05.028Z,99783.38
2022-09-17T09:46:59.552Z,99783.16
2022-09-17T09:49:55.077Z,99795.72
2022-09-17T09:52:37.211Z,99783.50
2022-09-17T09:55:25.862Z,99787.25
2022-09-17T09:58:00.440Z,99788.28
2022-09-17T10:00:32.854Z,99784.16
2022-09-17T10:03:06.026Z,99795.47
2022-09-17T10:05:35.766Z,99802.56
2022-09-17T10:08:12.507Z,99792.97
2022-09-17T10:10:55.795Z,99791.38
2022-09-17T10:13:29.055Z,99802.19
2022-09-17T10:16:08.833Z,99790.91
2022-09-17T10:18:37.014Z,99789.53
2022-09-17T10:21:20.638Z,99788.44
2022-09-17T10:23:49.225Z,99802.34
2022-09-17T10:26:25.661Z,99801.31
2022-09-17T10:28:56.029Z,99796.34
2022-09-17T10:31:24.274Z,99806.00
2022-09-17T10:33:57.923Z,99801.41
2022-09-17T10:36:44.152Z,99805.19
2022-09-17T10:39:31.212Z,99792.22
2022-09-17T10:42:01.181Z,99803.41
2022-09-17T10:44:30.677Z,99804.69
2022-09-17T10:47:05.448Z,99799.63
2022-09-17T10:49:38.858Z,99791.75
2022-09-17T10:52:15.191Z,99795.31
2022-09-17T10:55:06.823Z,99810.09
2022-09-17T10:57:58.503Z,99797.06
2022-09-17T11:00:35.861Z,99788.47
2022-09-17T11:03:33.266Z,99803.78
2022-09-17T11:06:25.737Z,99795.75
2022-09-17T11:09:06.828Z,99802.97
2022-09-17T11:11:45.740Z,99802.59
2022-09-17T11:14:36.042Z,99800.47
2022-09-17T11:17:13.108Z,99791.88
2022-09-17T11:19:51.876Z,99789.75
2022-09-17T11:22:24.732Z,99790.69
2022-09-17T11:25:04.284Z,99787.78
2022-09-17T11:27:47.051Z,99789.44
2022-09-17T11:30:19.260Z,99790.84
2022-09-17T11:33:00.504Z,99788.56
2022-09-17T11:35:31.914Z,99787.78
2022-09-17T11:38:04.890Z,99770.88
2022-09-17T11:40:40.274Z,99769.81
2022-09-17T11:43:18.295Z,99776.09
2022-09-17T11:45:57.483Z,99778.13
2022-09-17T11:48:32.884Z,99773.44
2022-09-17T11:51:08.316Z,99797.13
2022-09-17T11:53:42.150Z,99784.94
2022-09-17T11:56:18.516Z,99780.94
2022-09-17T11:58:52.634Z,99785.59
2022-09-17T12:01:27.362Z,99781.25
2022-09-17T12:04:00.609Z,99778.16
2022-09-17T12:06:37.409Z,99777.34
2022-09-17T12:09:11.816Z,99780.63
2022-09-17T12:11:45.531Z,99775.75
2022-09-17T12:14:18.817Z,99776.72
2022-09-17T12:16:50.495Z,99775.84
2022-09-17T12:19:25.361Z,99767.75
2022-09-17T12:21:57.218Z,99764.78
2022-09-17T12:24:26.825Z,99764.75
2022-09-17T12:27:18.911Z,99758.00
2022-09-17T12:30:05.849Z,99757.91
2022-09-17T12:32:48.720Z,99767.53
2022-09-17T12:35:59.744Z,99759.50
2022-09-17T12:38:35.233Z,99751.09
2022-09-17T12:41:11.888Z,99754.31
2022-09-17T12:44:02.222Z,99758.75
2022-09-17T12:46:48.024Z,99745.34
2022-09-17T12:49:38.407Z,99740.78
2022-09-17T12:52:15.251Z,99738.38
2022-09-17T12:55:00.206Z,99730.91
2022-09-17T12:57:36.596Z,99726.00
2022-09-17T13:00:08.427Z,99723.75
2022-09-17T13:02:42.717Z,99713.69
2022-09-17T13:05:43.921Z,99709.59
2022-09-17T13:08:35.167Z,99702.28
2022-09-17T13:11:55.000Z,99697.13
2022-09-17T13:14:32.553Z,99684.06
2022-09-17T13:17:06.373Z,99688.94
2022-09-17T13:19:41.470Z,99691.41
2022-09-17T13:22:17.311Z,99673.94
2022-09-17T13:24:49.021Z,99674.53
2022-09-17T13:27:23.343Z,99668.84
2022-09-17T13:30:01.931Z,99665.72
2022-09-17T13:32:48.930Z,99673.00
2022-09-17T13:35:51.399Z,99665.13
2022-09-17T13:38:23.806Z,99667.59
2022-09-17T13:40:53.153Z,99667.00
2022-09-17T13:43:26.783Z,99669.59
2022-09-17T13:46:15.571Z,99676.66
2022-09-17T13:48:53.025Z,99668.28
2022-09-17T13:51:55.092Z,99672.63
2022-09-17T13:54:36.072Z,99665.81
2022-09-17T13:57:11.313Z,99672.63
2022-09-17T13:59:39.530Z,99669.59
2022-09-17T14:02:37.345Z,99667.16
2022-09-17T14:05:35.564Z,99670.56
2022-09-17T14:08:15.134Z,99673.16
2022-09-17T14:10:45.042Z,99674.66
2022-09-17T14:13:28.813Z,99690.59
2022-09-17T14:16:05.006Z,99688.59
2022-09-17T14:18:59.014Z,99696.09
2022-09-17T14:21:31.488Z,99682.47
2022-09-17T14:24:02.151Z,99703.97
2022-09-17T14:26:49.530Z,99693.31
2022-09-17T14:29:47.000Z,99706.91
2022-09-17T14:32:21.656Z,99708.44
2022-09-17T14:34:50.707Z,99714.44
2022-09-17T14:37:22.730Z,99742.84
2022-09-17T14:39:52.712Z,99758.75
2022-09-17T14:42:24.360Z,99744.03
2022-09-17T14:44:59.834Z,99746.56
2022-09-17T14:47:27.961Z,99744.13
2022-09-17T14:49:55.822Z,99749.38
2022-09-17T14:52:40.180Z,99753.53
2022-09-17T14:55:17.117Z,99758.19
2022-09-17T14:57:46.254Z,99748.72
2022-09-17T15:00:25.535Z,99749.34
2022-09-17T15:02:55.868Z,99751.28
2022-09-17T15:05:27.187Z,99760.91
2022-09-17T15:08:12.807Z,99759.63
2022-09-17T15:10:47.948Z,99755.78
2022-09-17T15:13:18.149Z,99760.25
2022-09-17T15:15:54.353Z,99760.13
2022-09-17T15:18:25.117Z,99764.97
2022-09-17T15:20:56.632Z,99763.22
2022-09-17T15:23:29.092Z,99753.78
2022-09-17T15:25:59.906Z,99761.25
2022-09-17T15:28:32.707Z,99760.06
2022-09-17T15:31:00.629Z,99752.63
2022-09-17T15:33:30.149Z,99756.75
2022-09-17T15:36:07.806Z,99759.72
2022-09-17T15:38:39.165Z,99755.34
2022-09-17T15:41:28.477Z,99765.56
2022-09-17T15:44:28.543Z,99761.28
2022-09-17T15:46:57.829Z,99760.22
2022-09-17T15:49:30.477Z,99758.91
2022-09-17T15:52:32.699Z,99773.31
2022-09-17T15:55:02.270Z,99775.69
2022-09-17T15:57:32.928Z,99778.03
2022-09-17T16:00:08.811Z,99782.59
2022-09-17T16:02:36.723Z,99778.63
2022-09-17T16:05:55.777Z,99762.38
2022-09-17T16:08:25.367Z,99765.69
2022-09-17T16:10:54.778Z,99763.16
2022-09-17T16:13:27.882Z,99757.41
2022-09-17T16:15:56.738Z,99743.59
2022-09-17T16:18:26.690Z,99750.56
2022-09-17T16:20:54.339Z,99758.34
2022-09-17T16:23:22.528Z,99772.88
2022-09-17T16:25:52.959Z,99775.28
2022-09-17T16:28:22.023Z,99780.16
2022-09-17T16:30:51.767Z,99779.25
2022-09-17T16:33:20.035Z,99785.59
2022-09-17T16:35:48.912Z,99787.16
2022-09-17T16:38:16.903Z,99783.34
2022-09-17T16:40:47.137Z,99795.41
2022-09-17T16:43:19.476Z,99799.81
2022-09-17T16:46:00.359Z,99795.03
2022-09-17T16:48:28.236Z,99799.97
2022-09-17T16:50:55.891Z,99794.25
2022-09-17T16:53:23.567Z,99805.19
2022-09-17T16:55:51.497Z,99808.50
2022-09-17T16:58:19.243Z,99813.34
2022-09-17T17:00:47.299Z,99818.56
2022-09-17T17:03:17.025Z,99822.53
2022-09-17T17:05:44.718Z,99823.13
2022-09-17T17:08:14.449Z,99826.03
2022-09-17T17:10:42.112Z,99830.91
2022-09-17T17:13:11.746Z,99817.09
2022-09-17T17:15:42.670Z,99822.97
2022-09-17T17:18:10.501Z,99818.03
2022-09-17T17:20:40.604Z,99815.38
2022-09-17T17:23:08.417Z,99810.88
2022-09-17T17:25:36.277Z,99822.69
2022-09-17T17:28:03.881Z,99836.38
2022-09-17T17:30:35.039Z,99830.75
2022-09-17T17:33:03.923Z,99826.88
2022-09-17T17:35:31.736Z,99830.22
2022-09-17T17:38:00.717Z,99832.50
2022-09-17T17:40:30.759Z,99838.75
2022-09-17T17:42:58.908Z,99838.31
2022-09-17T17:45:26.618Z,99829.28
2022-09-17T17:47:54.612Z,99844.97
2022-09-17T17:50:23.884Z,99848.97
2022-09-17T17:52:54.622Z,99845.88
2022-09-17T17:55:23.642Z,99841.09
2022-09-17T17:58:00.867Z,99839.66
2022-09-17T18:00:29.333Z,99848.75
2022-09-17T18:02:57.150Z,99849.16
2022-09-17T18:05:24.867Z,99845.00
2022-09-17T18:07:52.644Z,99844.41
2022-09-17T18:10:20.910Z,99851.63
2022-09-17T18:12:51.252Z,99849.16
2022-09-17T18:15:19.176Z,99857.63
2022-09-17T18:17:49.918Z,99865.69
2022-09-17T18:20:18.218Z,99867.38
2022-09-17T18:22:45.982Z,99872.06
2022-09-17T18:25:13.709Z,99878.50
2022-09-17T18:27:42.382Z,99881.56
2022-09-17T18:30:14.751Z,99884.91
2022-09-17T18:32:42.428Z,99892.13
2022-09-17T18:35:10.182Z,99882.22
2022-09-17T18:37:37.958Z,99896.25
2022-09-17T18:40:06.490Z,99895.63
2022-09-17T18:42:34.384Z,99900.41
2022-09-17T18:45:02.168Z,99902.84
2022-09-17T18:47:31.130Z,99896.88
2022-09-17T18:49:59.032Z,99905.78
2022-09-17T18:52:26.847Z,99918.34
2022-09-17T18:54:54.477Z,99913.00
2022-09-17T18:57:22.200Z,99911.94
2022-09-17T18:59:49.898Z,99926.63
2022-09-17T19:02:17.592Z,99921.88
2022-09-17T19:04:46.662Z,99931.56
2022-09-17T19:07:14.383Z,99932.63
2022-09-17T19:09:42.237Z,99939.66
2022-09-17T19:12:09.901Z,99946.69
2022-09-17T19:14:37.642Z,99959.91
2022-09-17T19:17:05.418Z,99939.84
2022-09-17T19:19:32.995Z,99941.56
2022-09-17T19:22:02.093Z,99946.50
2022-09-17T19:24:29.768Z,99949.81
2022-09-17T19:27:01.548Z,99954.16
2022-09-17T19:29:29.121Z,99952.28
2022-09-17T19:31:56.757Z,99965.13
2022-09-17T19:34:24.585Z,99959.53
2022-09-17T19:36:52.239Z,99958.50
2022-09-17T19:39:21.246Z,99958.25
2022-09-17T19:41:48.892Z,99950.59
2022-09-17T19:44:16.493Z,99957.22
2022-09-17T19:46:44.103Z,99952.25
2022-09-17T19:49:15.788Z,99962.16
2022-09-17T19:51:43.397Z,99959.47
2022-09-17T19:54:11.572Z,99964.03
2022-09-17T19:56:40.491Z,99963.56
2022-09-17T19:59:08.520Z,99962.75
2022-09-17T20:01:36.230Z,99967.50
2022-09-17T20:04:04.205Z,99968.50
2022-09-17T20:06:34.191Z,99972.63
2022-09-17T20:09:01.783Z,99966.38
2022-09-17T20:11:29.433Z,99972.41
2022-09-17T20:13:59.460Z,99972.34
2022-09-17T20:16:27.494Z,99972.75
2022-09-17T20:18:55.223Z,99965.88
2022-09-17T20:21:24.886Z,99971.00
2022-09-17T20:23:52.846Z,99976.97
2022-09-17T20:26:20.629Z,99982.19
2022-09-17T20:28:50.288Z,99983.94
2022-09-17T20:31:21.227Z,99988.69
2022-09-17T20:33:51.728Z,99981.63
2022-09-17T20:36:20.901Z,99992.34
2022-09-17T20:41:40.159Z,99990.84
2022-09-17T20:44:08.266Z,99996.00
2022-09-17T20:46:37.331Z,100000.72
2022-09-17T20:49:05.359Z,99995.34
2022-09-17T20:51:34.212Z,99994.97
2022-09-17T20:54:02.832Z,100006.41
2022-09-17T20:56:33.123Z,99994.00
2022-09-17T20:59:08.295Z,100002.66
2022-09-17T21:01:38.178Z,100002.03
2022-09-17T21:04:07.635Z,100004.31
2022-09-17T21:06:38.091Z,100007.63
2022-09-17T21:09:07.195Z,100010.09
2022-09-17T21:11:35.470Z,100005.56
2022-09-17T21:14:05.147Z,100008.00
2022-09-17T21:16:34.258Z,100013.81
2022-09-17T21:19:05.525Z,100004.34
2022-09-17T21:21:34.416Z,100005.81
2022-09-17T21:24:02.996Z,100018.25
2022-09-17T21:26:32.398Z,100011.03
2022-09-17T21:28:59.993Z,100020.78
2022-09-17T21:31:32.404Z,100015.78
2022-09-17T21:34:03.597Z,100011.72
2022-09-17T21:36:32.766Z,100019.56
2022-09-17T21:39:02.307Z,100025.38
2022-09-17T21:41:30.995Z,100026.03
2022-09-17T21:43:59.264Z,100027.53
2022-09-17T21:46:28.981Z,100026.91
2022-09-17T21:48:59.950Z,100025.63
2022-09-17T21:51:30.902Z,100021.91
2022-09-17T21:54:00.408Z,100024.56
2022-09-17T21:56:28.819Z,100027.47
2022-09-17T21:58:58.813Z,100033.06
2022-09-17T22:01:31.039Z,100027.88
2022-09-17T22:04:00.012Z,100034.06
2022-09-17T22:06:30.930Z,100043.75
2022-09-17T22:09:00.643Z,100038.84
2022-09-17T22:11:30.567Z,100038.63
2022-09-17T22:14:00.833Z,100043.81
2022-09-17T22:16:30.670Z,100044.84
2022-09-17T22:18:59.550Z,100041.53
2022-09-17T22:21:29.964Z,100047.38
2022-09-17T22:23:59.498Z,100051.13
2022-09-17T22:26:29.480Z,100053.63
2022-09-17T22:29:01.250Z,100037.53
2022-09-17T22:31:28.932Z,100048.63
2022-09-17T22:33:56.616Z,100041.63
2022-09-17T22:36:25.932Z,100048.44
2022-09-17T22:38:56.373Z,100046.53
2022-09-17T22:41:25.922Z,100041.16
2022-09-17T22:43:54.320Z,100044.72
2022-09-17T22:46:24.501Z,100039.56
2022-09-17T22:48:52.170Z,100041.81
2022-09-17T22:51:20.028Z,100044.53
2022-09-17T22:53:47.540Z,100037.28
2022-09-17T22:56:18.327Z,100037.06
2022-09-17T22:58:46.006Z,100039.56
2022-09-17T23:01:15.582Z,100024.88
2022-09-17T23:03:44.389Z,100026.16
2022-09-17T23:06:14.377Z,100024.28
2022-09-17T23:08:42.489Z,100020.72
2022-09-17T23:11:16.919Z,100022.56
2022-09-17T23:13:45.864Z,100028.56
2022-09-17T23:16:13.600Z,100028.97
2022-09-17T23:18:41.643Z,100028.78
2022-09-17T23:21:14.148Z,100026.72
2022-09-17T23:23:45.413Z,100027.75
2022-09-17T23:26:15.396Z,100029.59
2022-09-17T23:28:43.199Z,100025.31
2022-09-17T23:31:13.987Z,100033.34
2022-09-17T23:33:42.358Z,100035.63
2022-09-17T23:36:13.681Z,100033.56
2022-09-17T23:38:42.457Z,100031.69
2022-09-17T23:41:12.434Z,100031.88
2022-09-17T23:43:40.129Z,100031.66
2022-09-17T23:46:08.158Z,100031.25
2022-09-17T23:48:37.202Z,100030.63
2022-09-17T23:51:05.781Z,100033.53
2022-09-17T23:53:35.301Z,100023.41
2022-09-17T23:56:03.760Z,100017.84
2022-09-17T23:58:31.833Z,100011.66
